Time;durP1;ratioP1;P1;durP2;ratioP2;P2;SDS_P1;SDS_P2;PMS_P1;PMS_P2;Temp;Humidity;BMP_temperature;BMP_pressure;BME280_temperature;BME280_humidity;BME280_pressure;Samples;Min_cycle;Max_cycle;Signal;HPM_P1;HPM_P2
2022/08/21 00:00:40;;;;;;;0.40;0.40;;;19.00;99.90;;;;;;5052859;28;20233;-64
2022/08/21 00:03:31;;;;;;;0.40;0.40;;;18.90;99.90;;;;;;5052944;28;20197;-67
2022/08/21 00:06:21;;;;;;;0.93;0.88;;;18.90;99.90;;;;;;5052534;28;20213;-66
2022/08/21 00:09:10;;;;;;;0.40;0.40;;;18.80;99.90;;;;;;5053660;28;20194;-69
2022/08/21 00:11:58;;;;;;;0.40;0.40;;;18.80;99.90;;;;;;5052385;28;20236;-66
2022/08/21 00:14:47;;;;;;;0.40;0.40;;;18.70;99.90;;;;;;5052453;28;20678;-65
2022/08/21 00:17:35;;;;;;;2.10;1.92;;;18.60;99.90;;;;;;5066286;28;20278;-67
2022/08/21 00:20:24;;;;;;;0.70;0.70;;;18.60;99.90;;;;;;5072280;28;20201;-68
2022/08/21 00:23:15;;;;;;;0.40;0.40;;;18.60;99.90;;;;;;5072199;28;20200;-66
2022/08/21 00:26:03;;;;;;;1.05;1.00;;;18.50;99.90;;;;;;5072277;28;20200;-67
2022/08/21 00:28:51;;;;;;;0.40;0.40;;;18.50;99.90;;;;;;5072655;28;20208;-65
2022/08/21 00:31:39;;;;;;;0.60;0.60;;;18.50;99.90;;;;;;5072819;28;20208;-67
2022/08/21 00:34:28;;;;;;;0.65;0.65;;;18.40;99.90;;;;;;5072515;28;20197;-70
2022/08/21 00:37:16;;;;;;;0.57;0.57;;;18.40;99.90;;;;;;5072299;28;20256;-68
2022/08/21 00:40:08;;;;;;;0.85;0.85;;;18.40;99.90;;;;;;5071743;28;20636;-69
2022/08/21 00:42:56;;;;;;;0.93;0.93;;;18.30;99.90;;;;;;5071902;28;20201;-67
2022/08/21 00:45:44;;;;;;;1.15;0.82;;;18.30;99.90;;;;;;5071914;28;20682;-66
2022/08/21 00:48:33;;;;;;;0.98;0.98;;;18.20;99.90;;;;;;5072328;28;20192;-66
2022/08/21 00:51:26;;;;;;;0.40;0.40;;;18.20;99.90;;;;;;5071738;28;20203;-69
2022/08/21 00:54:15;;;;;;;0.52;0.52;;;18.20;99.90;;;;;;5072250;28;20201;-68
2022/08/21 00:57:11;;;;;;;0.40;0.40;;;18.20;99.90;;;;;;5078501;28;20227;-66
2022/08/21 01:00:03;;;;;;;1.33;1.23;;;18.20;99.90;;;;;;5091451;28;20200;-67
2022/08/21 01:02:52;;;;;;;0.40;0.40;;;18.20;99.90;;;;;;5092755;28;20253;-68
2022/08/21 01:05:41;;;;;;;0.60;0.50;;;18.10;99.90;;;;;;5092228;28;20207;-68
2022/08/21 01:08:30;;;;;;;0.60;0.60;;;18.10;99.90;;;;;;5092316;28;20287;-70
2022/08/21 01:11:19;;;;;;;2.47;1.98;;;18.00;99.90;;;;;;5091305;28;20211;-71
2022/08/21 01:14:10;;;;;;;0.40;0.40;;;18.00;99.90;;;;;;5092101;28;20214;-68
2022/08/21 01:17:00;;;;;;;0.50;0.50;;;18.00;99.90;;;;;;5091736;28;20273;-66
2022/08/21 01:19:48;;;;;;;1.90;1.80;;;17.90;99.90;;;;;;5091347;28;20250;-66
2022/08/21 01:22:38;;;;;;;0.50;0.50;;;17.90;99.90;;;;;;5091390;28;20560;-65
2022/08/21 01:25:26;;;;;;;0.67;0.67;;;17.90;99.90;;;;;;5091904;28;20203;-67
2022/08/21 01:28:15;;;;;;;0.40;0.40;;;17.90;99.90;;;;;;5090961;28;20192;-68
2022/08/21 01:31:07;;;;;;;0.40;0.40;;;17.80;99.90;;;;;;5090477;28;20196;-68
2022/08/21 01:33:56;;;;;;;0.40;0.40;;;17.80;99.90;;;;;;5091546;28;20224;-67
2022/08/21 01:36:45;;;;;;;0.40;0.40;;;17.80;99.90;;;;;;5091480;28;20224;-66
2022/08/21 01:39:35;;;;;;;0.40;0.40;;;17.80;99.90;;;;;;5091098;28;20227;-66
2022/08/21 01:42:23;;;;;;;0.60;0.60;;;17.80;99.90;;;;;;5092028;28;20314;-70
2022/08/21 01:45:13;;;;;;;0.40;0.40;;;18.00;99.90;;;;;;5065516;28;20732;-68
2022/08/21 01:48:02;;;;;;;0.40;0.40;;;17.70;99.90;;;;;;5070990;28;20224;-69
2022/08/21 01:50:50;;;;;;;0.40;0.40;;;17.70;99.90;;;;;;5071393;28;20228;-68
2022/08/21 01:53:43;;;;;;;0.40;0.40;;;17.60;99.90;;;;;;5071587;28;20200;-66
2022/08/21 01:56:38;;;;;;;0.63;0.63;;;17.20;99.90;;;;;;5073029;28;20679;-66
2022/08/21 01:59:27;;;;;;;0.40;0.40;;;17.60;99.90;;;;;;5090714;28;20243;-71
2022/08/21 02:02:15;;;;;;;0.40;0.40;;;17.40;99.90;;;;;;5091074;28;20191;-66
2022/08/21 02:05:05;;;;;;;0.40;0.40;;;17.60;99.90;;;;;;5091611;28;20279;-69
2022/08/21 02:07:55;;;;;;;0.50;0.50;;;17.40;99.90;;;;;;5091608;28;20270;-66
2022/08/21 02:10:43;;;;;;;0.40;0.40;;;17.40;99.90;;;;;;5091135;28;20680;-69
2022/08/21 02:13:37;;;;;;;0.50;0.50;;;17.40;99.90;;;;;;5091033;28;20204;-66
2022/08/21 02:16:25;;;;;;;0.50;0.50;;;17.30;99.90;;;;;;5090964;28;20239;-69
2022/08/21 02:19:15;;;;;;;0.50;0.50;;;17.20;99.90;;;;;;5091066;28;20228;-67
2022/08/21 02:22:04;;;;;;;0.70;0.70;;;17.30;99.90;;;;;;5091343;28;20672;-68
2022/08/21 02:24:52;;;;;;;0.40;0.40;;;17.20;99.90;;;;;;5090586;28;20439;-71
2022/08/21 02:27:44;;;;;;;0.40;0.40;;;17.20;99.90;;;;;;5090598;28;20218;-66
2022/08/21 02:30:37;;;;;;;0.87;0.70;;;17.40;99.90;;;;;;5090622;28;20195;-67
2022/08/21 02:33:26;;;;;;;0.40;0.40;;;17.20;99.90;;;;;;5090237;28;20241;-66
2022/08/21 02:36:15;;;;;;;0.50;0.50;;;17.20;99.90;;;;;;5090929;28;20217;-70
2022/08/21 02:39:03;;;;;;;0.40;0.40;;;17.20;99.90;;;;;;5090072;28;20220;-70
2022/08/21 02:41:51;;;;;;;0.40;0.40;;;17.20;99.90;;;;;;5094941;28;20203;-67
2022/08/21 02:44:39;;;;;;;0.40;0.40;;;17.20;99.90;;;;;;5095241;28;20203;-67
2022/08/21 02:47:29;;;;;;;0.40;0.40;;;17.20;99.90;;;;;;5094224;28;20216;-69
2022/08/21 02:50:21;;;;;;;0.40;0.40;;;17.10;99.90;;;;;;5094570;28;20199;-70
2022/08/21 02:53:16;;;;;;;0.40;0.40;;;17.10;99.90;;;;;;5095037;28;20245;-67
2022/08/21 02:56:07;;;;;;;0.80;0.80;;;17.10;99.90;;;;;;5094524;28;20691;-66
2022/08/21 02:58:55;;;;;;;0.93;0.80;;;17.10;99.90;;;;;;5055205;28;20527;-70
2022/08/21 03:01:43;;;;;;;0.50;0.50;;;17.10;99.90;;;;;;5054388;28;20278;-67
2022/08/21 03:04:33;;;;;;;0.40;0.40;;;17.20;99.90;;;;;;5053907;28;20395;-70
2022/08/21 03:07:21;;;;;;;1.10;0.93;;;17.30;99.90;;;;;;5053978;28;20224;-69
2022/08/21 03:10:10;;;;;;;0.40;0.40;;;17.30;99.90;;;;;;5053478;28;20205;-68
2022/08/21 03:12:58;;;;;;;0.40;0.40;;;18.70;99.90;;;;;;5054697;28;20698;-69
2022/08/21 03:15:47;;;;;;;0.50;0.50;;;17.30;99.90;;;;;;5053336;28;20198;-67
2022/08/21 03:18:36;;;;;;;0.50;0.50;;;17.30;99.90;;;;;;5053692;28;20690;-67
2022/08/21 03:21:26;;;;;;;0.40;0.40;;;17.20;99.90;;;;;;5053153;28;20693;-67
2022/08/21 03:24:14;;;;;;;0.50;0.50;;;17.20;99.90;;;;;;5054203;28;20732;-70
2022/08/21 03:27:04;;;;;;;0.40;0.40;;;17.20;99.90;;;;;;5054077;28;20710;-66
2022/08/21 03:29:56;;;;;;;0.40;0.40;;;17.20;99.90;;;;;;5053988;28;20703;-67
2022/08/21 03:32:44;;;;;;;0.40;0.40;;;17.10;99.90;;;;;;5053715;28;20460;-71
2022/08/21 03:35:32;;;;;;;0.40;0.40;;;17.20;99.90;;;;;;5054048;28;20712;-71
2022/08/21 03:38:21;;;;;;;0.57;0.57;;;17.00;99.90;;;;;;5054195;28;20521;-67
2022/08/21 03:41:13;;;;;;;0.40;0.40;;;17.00;99.90;;;;;;5052933;28;20217;-67
2022/08/21 03:44:01;;;;;;;0.40;0.40;;;17.00;99.90;;;;;;5063327;28;20234;-66
2022/08/21 03:46:49;;;;;;;0.40;0.40;;;17.00;99.90;;;;;;5073549;28;20445;-69
2022/08/21 03:49:38;;;;;;;0.40;0.40;;;16.90;99.90;;;;;;5072923;28;20411;-69
2022/08/21 03:52:26;;;;;;;0.40;0.40;;;16.90;99.90;;;;;;5073637;28;20868;-68
2022/08/21 03:55:15;;;;;;;0.40;0.40;;;16.80;99.90;;;;;;5073791;28;20419;-67
2022/08/21 03:58:05;;;;;;;0.50;0.50;;;16.70;99.90;;;;;;5088209;28;20216;-68
2022/08/21 04:01:06;;;;;;;0.40;0.40;;;16.70;99.90;;;;;;5093237;28;20228;-70
2022/08/21 04:03:54;;;;;;;0.40;0.40;;;16.40;99.90;;;;;;5092859;28;20599;-70
2022/08/21 04:06:42;;;;;;;0.50;0.50;;;16.60;99.90;;;;;;5093093;28;20438;-69
2022/08/21 04:09:30;;;;;;;0.40;0.40;;;16.30;99.90;;;;;;5092983;28;20495;-67
2022/08/21 04:12:21;;;;;;;0.50;0.50;;;16.40;99.90;;;;;;5092570;28;20196;-68
2022/08/21 04:15:09;;;;;;;0.40;0.40;;;16.30;99.90;;;;;;5093006;28;20431;-67
2022/08/21 04:17:58;;;;;;;0.40;0.40;;;16.30;99.90;;;;;;5091786;28;20466;-70
2022/08/21 04:20:49;;;;;;;0.40;0.40;;;16.40;99.90;;;;;;5092096;28;20973;-68
2022/08/21 04:23:38;;;;;;;0.40;0.40;;;16.30;99.90;;;;;;5093634;28;20836;-67
2022/08/21 04:26:27;;;;;;;0.40;0.40;;;16.30;99.90;;;;;;5092503;28;20495;-68
2022/08/21 04:29:16;;;;;;;0.40;0.40;;;16.30;99.90;;;;;;5092073;28;20419;-69
2022/08/21 04:32:04;;;;;;;0.40;0.40;;;16.30;99.90;;;;;;5092341;28;20207;-70
2022/08/21 04:34:59;;;;;;;0.40;0.40;;;16.40;99.90;;;;;;5093582;28;20833;-69
2022/08/21 04:37:47;;;;;;;0.40;0.40;;;16.40;99.90;;;;;;5092517;28;20224;-67
2022/08/21 04:40:36;;;;;;;0.50;0.50;;;16.40;99.90;;;;;;5092341;28;20423;-68
2022/08/21 04:43:24;;;;;;;0.40;0.40;;;16.40;99.90;;;;;;5092013;28;20199;-69
2022/08/21 04:46:13;;;;;;;0.40;0.40;;;16.30;99.90;;;;;;5091787;28;20224;-67
2022/08/21 04:49:01;;;;;;;0.40;0.40;;;16.40;99.90;;;;;;5092409;28;20687;-68
2022/08/21 04:51:50;;;;;;;0.40;0.40;;;16.40;99.90;;;;;;5091933;28;20219;-67
2022/08/21 04:54:39;;;;;;;0.50;0.50;;;16.30;99.90;;;;;;5091931;28;20196;-67
2022/08/21 04:57:27;;;;;;;0.40;0.40;;;16.50;99.90;;;;;;5082219;28;20501;-67
2022/08/21 05:00:35;;;;;;;0.47;0.47;;;16.50;99.90;;;;;;5071065;28;20205;-69
2022/08/21 05:03:25;;;;;;;0.40;0.40;;;16.70;99.90;;;;;;5071344;28;20423;-66
2022/08/21 05:06:15;;;;;;;0.40;0.40;;;16.70;99.90;;;;;;5072368;28;20443;-67
2022/08/21 05:09:03;;;;;;;0.40;0.40;;;16.70;99.90;;;;;;5071675;28;20189;-66
2022/08/21 05:11:52;;;;;;;0.40;0.40;;;16.90;99.90;;;;;;5071750;28;20236;-69
2022/08/21 05:14:42;;;;;;;0.40;0.40;;;16.70;99.90;;;;;;5071843;28;20442;-68
2022/08/21 05:17:30;;;;;;;1.77;1.70;;;16.80;99.90;;;;;;5071475;28;20232;-68
2022/08/21 05:20:20;;;;;;;0.40;0.40;;;17.00;99.90;;;;;;5070741;28;20231;-68
2022/08/21 05:23:09;;;;;;;0.60;0.60;;;16.90;99.90;;;;;;5070883;28;20497;-69
2022/08/21 05:25:58;;;;;;;0.40;0.40;;;16.90;99.90;;;;;;5071801;28;20208;-70
2022/08/21 05:28:46;;;;;;;0.40;0.40;;;16.90;99.90;;;;;;5071297;28;20197;-67
2022/08/21 05:31:34;;;;;;;0.40;0.40;;;17.00;99.90;;;;;;5071083;28;20438;-67
2022/08/21 05:34:24;;;;;;;0.47;0.47;;;17.10;99.90;;;;;;5071368;28;20196;-68
2022/08/21 05:37:14;;;;;;;0.40;0.40;;;17.10;99.90;;;;;;5071129;28;20317;-68
2022/08/21 05:40:03;;;;;;;0.40;0.40;;;17.20;99.90;;;;;;5070873;28;20231;-67
2022/08/21 05:43:09;;;;;;;0.50;0.50;;;17.20;99.90;;;;;;5071392;28;20207;-68
2022/08/21 05:45:57;;;;;;;0.43;0.43;;;17.20;99.90;;;;;;5071541;28;20475;-68
2022/08/21 05:48:46;;;;;;;0.40;0.40;;;17.20;99.90;;;;;;5070819;28;20189;-69
2022/08/21 05:51:34;;;;;;;0.40;0.40;;;17.30;99.90;;;;;;5070665;28;20208;-66
2022/08/21 05:54:23;;;;;;;0.40;0.40;;;17.40;99.90;;;;;;5070534;28;20205;-68
2022/08/21 05:57:11;;;;;;;0.50;0.50;;;17.60;99.90;;;;;;5078654;28;20219;-69
2022/08/21 05:59:59;;;;;;;0.40;0.40;;;17.50;99.90;;;;;;5090974;28;20219;-69
2022/08/21 06:02:48;;;;;;;0.40;0.40;;;17.60;99.90;;;;;;5073315;28;20262;-69
2022/08/21 06:05:36;;;;;;;0.40;0.40;;;17.60;99.90;;;;;;5070373;28;20197;-67
2022/08/21 06:08:25;;;;;;;0.40;0.40;;;17.70;99.90;;;;;;5070768;28;20204;-71
2022/08/21 06:11:15;;;;;;;0.40;0.40;;;17.70;99.90;;;;;;5070019;28;20204;-67
2022/08/21 06:14:06;;;;;;;0.40;0.40;;;17.90;99.90;;;;;;5070476;28;20204;-68
2022/08/21 06:16:54;;;;;;;0.40;0.40;;;17.80;99.90;;;;;;5070756;28;20701;-71
2022/08/21 06:19:42;;;;;;;0.40;0.40;;;18.00;99.90;;;;;;5070640;28;20269;-66
2022/08/21 06:22:33;;;;;;;0.40;0.40;;;17.90;99.90;;;;;;5070353;28;20283;-68
2022/08/21 06:25:21;;;;;;;0.40;0.40;;;18.00;99.90;;;;;;5070455;28;20201;-67
2022/08/21 06:28:11;;;;;;;0.40;0.40;;;18.20;99.90;;;;;;5070164;28;20716;-67
2022/08/21 06:30:59;;;;;;;2.30;2.20;;;18.10;99.90;;;;;;5071230;28;20204;-68
2022/08/21 06:33:48;;;;;;;0.40;0.40;;;18.30;99.90;;;;;;5069924;28;20208;-67
2022/08/21 06:36:36;;;;;;;0.50;0.50;;;18.30;99.90;;;;;;5069830;28;20247;-68
2022/08/21 06:39:24;;;;;;;0.50;0.50;;;18.30;99.90;;;;;;5070140;28;20291;-68
2022/08/21 06:42:19;;;;;;;0.95;0.88;;;18.40;99.90;;;;;;5070401;28;20204;-69
2022/08/21 06:45:09;;;;;;;0.40;0.40;;;18.40;99.90;;;;;;5070363;28;20200;-67
2022/08/21 06:47:57;;;;;;;0.50;0.50;;;18.50;99.90;;;;;;5069617;28;20220;-66
2022/08/21 06:50:46;;;;;;;0.50;0.50;;;18.60;99.90;;;;;;5069641;28;20204;-68
2022/08/21 06:53:34;;;;;;;0.40;0.40;;;18.50;99.90;;;;;;5069553;28;20205;-69
2022/08/21 06:56:22;;;;;;;0.40;0.40;;;18.60;99.90;;;;;;5070271;28;20235;-67
2022/08/21 06:59:11;;;;;;;0.40;0.40;;;18.80;99.90;;;;;;5070027;28;20685;-66
2022/08/21 07:02:00;;;;;;;3.22;2.35;;;19.10;99.90;;;;;;5070342;28;20289;-69
2022/08/21 07:04:49;;;;;;;0.40;0.40;;;19.10;99.90;;;;;;5069656;28;20215;-67
2022/08/21 07:07:37;;;;;;;0.40;0.40;;;19.20;99.90;;;;;;5069755;28;20224;-69
2022/08/21 07:10:26;;;;;;;0.50;0.50;;;19.30;99.90;;;;;;5070178;28;20193;-66
2022/08/21 07:13:14;;;;;;;0.50;0.50;;;19.40;99.90;;;;;;5070145;28;20255;-67
2022/08/21 07:16:03;;;;;;;0.40;0.40;;;19.40;99.90;;;;;;5070025;28;20208;-67
2022/08/21 07:18:52;;;;;;;0.40;0.40;;;19.50;99.90;;;;;;5070154;28;20205;-66
2022/08/21 07:21:41;;;;;;;0.40;0.40;;;19.60;99.90;;;;;;5070114;28;20568;-68
2022/08/21 07:24:29;;;;;;;0.90;0.90;;;19.60;99.90;;;;;;5069359;28;20197;-68
2022/08/21 07:27:17;;;;;;;0.50;0.50;;;19.60;99.90;;;;;;5073645;28;20227;-66
2022/08/21 07:30:07;;;;;;;0.75;0.75;;;19.60;99.90;;;;;;5073553;28;20665;-67
2022/08/21 07:32:56;;;;;;;0.60;0.60;;;19.60;99.90;;;;;;5074562;28;20201;-67
2022/08/21 07:35:46;;;;;;;0.40;0.40;;;19.90;99.90;;;;;;5073250;28;20204;-68
2022/08/21 07:38:35;;;;;;;0.95;0.95;;;19.80;99.90;;;;;;5073514;28;20196;-70
2022/08/21 07:41:28;;;;;;;0.50;0.50;;;19.90;99.90;;;;;;5072716;28;20220;-68
2022/08/21 07:44:16;;;;;;;1.30;1.30;;;19.90;99.90;;;;;;5073508;28;20696;-68
2022/08/21 07:47:04;;;;;;;0.70;0.70;;;20.00;99.90;;;;;;5073107;28;20220;-66
2022/08/21 07:49:52;;;;;;;0.50;0.50;;;20.10;99.90;;;;;;5073368;28;20208;-68
2022/08/21 07:52:43;;;;;;;0.40;0.40;;;20.00;99.90;;;;;;5073903;28;20576;-67
2022/08/21 07:55:31;;;;;;;0.40;0.40;;;20.20;99.90;;;;;;5072951;28;20197;-66
2022/08/21 07:58:19;;;;;;;0.47;0.47;;;20.20;99.90;;;;;;5090568;28;20204;-66
2022/08/21 08:01:07;;;;;;;0.50;0.50;;;20.40;99.90;;;;;;5093045;28;20228;-68
2022/08/21 08:03:56;;;;;;;0.40;0.40;;;20.20;99.90;;;;;;5092637;28;20237;-66
2022/08/21 08:06:44;;;;;;;0.40;0.40;;;20.30;99.90;;;;;;5093328;28;20246;-69
2022/08/21 08:09:33;;;;;;;0.40;0.40;;;20.30;99.90;;;;;;5092433;28;20283;-67
2022/08/21 08:12:21;;;;;;;0.40;0.40;;;20.40;99.90;;;;;;5092572;28;20207;-68
2022/08/21 08:15:13;;;;;;;0.88;0.60;;;20.50;99.90;;;;;;5092646;28;20203;-67
2022/08/21 08:18:01;;;;;;;2.15;1.95;;;20.40;99.90;;;;;;5094135;28;20226;-69
2022/08/21 08:20:49;;;;;;;1.20;1.20;;;20.30;99.90;;;;;;5093029;28;20224;-67
2022/08/21 08:23:38;;;;;;;0.40;0.40;;;20.30;99.90;;;;;;5092541;28;20726;-66
2022/08/21 08:26:28;;;;;;;0.75;0.75;;;20.50;99.90;;;;;;5093408;28;20292;-68
2022/08/21 08:29:16;;;;;;;0.60;0.60;;;20.60;99.90;;;;;;5091765;28;20204;-69
2022/08/21 08:32:06;;;;;;;0.60;0.50;;;20.60;99.90;;;;;;5093126;28;20561;-67
2022/08/21 08:34:55;;;;;;;0.40;0.40;;;20.70;99.90;;;;;;5092193;28;20223;-68
2022/08/21 08:37:45;;;;;;;0.40;0.40;;;20.90;99.90;;;;;;5091452;28;20216;-66
2022/08/21 08:40:44;;;;;;;0.40;0.40;;;21.30;99.90;;;;;;5092242;28;20219;-66
2022/08/21 08:43:35;;;;;;;0.50;0.50;;;21.70;99.90;;;;;;5092931;28;20200;-66
2022/08/21 08:46:35;;;;;;;0.40;0.40;;;21.80;99.90;;;;;;5092480;28;20215;-67
2022/08/21 08:49:30;;;;;;;0.40;0.40;;;21.90;99.90;;;;;;5092274;28;20257;-65
2022/08/21 08:52:22;;;;;;;0.40;0.40;;;22.20;99.90;;;;;;5093177;28;20203;-66
2022/08/21 08:55:14;;;;;;;0.50;0.50;;;22.50;99.90;;;;;;5092581;28;20200;-66
2022/08/21 08:58:03;;;;;;;0.40;0.40;;;22.50;99.90;;;;;;5077413;28;20269;-65
2022/08/21 09:00:55;;;;;;;0.40;0.40;;;22.50;99.90;;;;;;5072639;28;20217;-65
2022/08/21 09:03:43;;;;;;;0.50;0.50;;;22.60;99.90;;;;;;5072553;28;20227;-65
2022/08/21 09:06:44;;;;;;;0.40;0.40;;;22.70;99.90;;;;;;5072796;28;20224;-66
2022/08/21 09:09:44;;;;;;;0.40;0.40;;;22.70;99.90;;;;;;5072734;28;20204;-64
2022/08/21 09:12:39;;;;;;;0.40;0.40;;;22.70;99.90;;;;;;5072755;28;20197;-65
2022/08/21 09:15:33;;;;;;;0.40;0.40;;;22.70;99.90;;;;;;5073300;28;20201;-65
2022/08/21 09:18:34;;;;;;;0.40;0.40;;;22.80;99.90;;;;;;5072868;28;20677;-65
2022/08/21 09:21:33;;;;;;;0.40;0.40;;;22.90;99.90;;;;;;5071904;28;20216;-66
2022/08/21 09:24:32;;;;;;;0.40;0.40;;;22.90;99.90;;;;;;5072993;28;20697;-65
2022/08/21 09:27:21;;;;;;;0.40;0.40;;;23.00;99.90;;;;;;5071491;28;20225;-65
2022/08/21 09:30:11;;;;;;;0.40;0.40;;;23.30;99.90;;;;;;5072476;28;20222;-65
2022/08/21 09:32:59;;;;;;;0.40;0.40;;;23.40;99.90;;;;;;5072676;28;20192;-66
2022/08/21 09:35:57;;;;;;;0.40;0.40;;;23.60;99.90;;;;;;5071757;28;20279;-66
2022/08/21 09:38:53;;;;;;;0.40;0.40;;;23.80;99.90;;;;;;5072053;28;20208;-67
2022/08/21 09:41:42;;;;;;;0.40;0.40;;;23.80;99.90;;;;;;5071847;28;20224;-66
2022/08/21 09:44:33;;;;;;;0.40;0.40;;;23.70;99.90;;;;;;5073022;28;20220;-67
2022/08/21 09:47:21;;;;;;;0.40;0.40;;;23.80;99.90;;;;;;5072182;28;20313;-67
2022/08/21 09:50:16;;;;;;;0.40;0.40;;;24.00;99.90;;;;;;5071041;28;20756;-66
2022/08/21 09:53:15;;;;;;;0.40;0.40;;;24.20;99.90;;;;;;5072004;28;20197;-66
2022/08/21 09:59:19;;;;;;;0.50;0.50;;;24.50;99.90;;;;;;5050886;28;20229;-66
2022/08/21 10:02:24;;;;;;;0.40;0.40;;;24.40;99.90;;;;;;5051963;28;20747;-66
2022/08/21 10:05:19;;;;;;;1.80;0.70;;;24.20;99.90;;;;;;5052219;28;20283;-66
2022/08/21 10:08:19;;;;;;;0.40;0.40;;;23.90;99.90;;;;;;5052563;28;20225;-66
2022/08/21 10:11:10;;;;;;;4.95;0.60;;;23.80;99.90;;;;;;5051498;28;20723;-66
2022/08/21 10:14:05;;;;;;;0.50;0.50;;;24.00;99.90;;;;;;5052503;28;20290;-66
2022/08/21 10:17:04;;;;;;;0.40;0.40;;;24.10;99.90;;;;;;5052051;28;20229;-66
2022/08/21 10:20:02;;;;;;;0.40;0.40;;;24.30;99.90;;;;;;5052137;28;20216;-66
2022/08/21 10:23:04;;;;;;;0.40;0.40;;;24.30;99.90;;;;;;5051646;28;20224;-67
2022/08/21 10:26:02;;;;;;;0.40;0.40;;;24.00;99.90;;;;;;5051559;28;20200;-65
2022/08/21 10:29:09;;;;;;;0.88;0.80;;;24.00;99.90;;;;;;5052028;28;20339;-66
2022/08/21 10:32:05;;;;;;;0.40;0.40;;;24.10;99.90;;;;;;5051799;28;20636;-65
2022/08/21 10:35:18;;;;;;;0.50;0.50;;;24.00;99.90;;;;;;5051501;28;20193;-65
2022/08/21 10:38:35;;;;;;;0.68;0.60;;;23.80;99.90;;;;;;5051843;28;20221;-66
2022/08/21 10:42:18;;;;;;;0.50;0.50;;;23.80;99.90;;;;;;5051575;28;20278;-66
2022/08/21 10:45:15;;;;;;;0.50;0.50;;;23.70;99.90;;;;;;5051904;28;20251;-67
2022/08/21 10:48:06;;;;;;;0.65;0.65;;;23.80;99.90;;;;;;5051569;28;20606;-67
2022/08/21 10:51:00;;;;;;;1.27;1.23;;;24.00;99.90;;;;;;5051647;28;20205;-66
2022/08/21 10:54:00;;;;;;;1.67;0.75;;;24.30;99.90;;;;;;5051858;28;20197;-64
2022/08/21 10:56:50;;;;;;;0.40;0.40;;;24.40;99.90;;;;;;5060519;28;20216;-67
2022/08/21 10:59:48;;;;;;;0.50;0.50;;;24.20;99.90;;;;;;5090975;28;20204;-67
2022/08/21 11:02:41;;;;;;;0.40;0.40;;;24.20;99.90;;;;;;5095035;28;20216;-67
2022/08/21 11:05:33;;;;;;;0.68;0.68;;;24.20;99.90;;;;;;5094262;28;20207;-68
2022/08/21 11:08:27;;;;;;;0.40;0.40;;;24.10;99.90;;;;;;5094333;28;20195;-65
2022/08/21 11:11:20;;;;;;;0.40;0.40;;;24.20;99.90;;;;;;5095427;28;20203;-66
2022/08/21 11:14:14;;;;;;;0.40;0.40;;;24.30;99.10;;;;;;5094547;28;20207;-64
2022/08/21 11:17:08;;;;;;;0.50;0.50;;;24.20;98.80;;;;;;5093936;28;20228;-66
2022/08/21 11:20:07;;;;;;;0.40;0.40;;;24.00;98.80;;;;;;5094735;28;20200;-67
2022/08/21 11:23:01;;;;;;;0.40;0.40;;;24.00;99.50;;;;;;5094158;28;20220;-65
2022/08/21 11:25:55;;;;;;;1.05;1.05;;;24.50;99.70;;;;;;5095216;28;20200;-65
2022/08/21 11:28:51;;;;;;;0.40;0.40;;;24.50;99.70;;;;;;5094719;28;20200;-66
2022/08/21 11:31:51;;;;;;;5.65;2.45;;;24.60;99.90;;;;;;5095267;28;20661;-64
2022/08/21 11:34:57;;;;;;;0.60;0.50;;;24.60;99.20;;;;;;5095114;28;20196;-65
2022/08/21 11:37:55;;;;;;;1.75;1.35;;;24.40;98.60;;;;;;5094891;28;20277;-66
2022/08/21 11:41:23;;;;;;;0.60;0.60;;;24.20;98.90;;;;;;5093612;28;20211;-65
2022/08/21 11:44:20;;;;;;;0.40;0.40;;;24.20;99.00;;;;;;5094855;28;20197;-64
2022/08/21 11:47:14;;;;;;;0.40;0.40;;;24.20;99.20;;;;;;5093893;28;20219;-66
2022/08/21 11:50:15;;;;;;;0.40;0.40;;;24.40;99.90;;;;;;5092968;28;20196;-65
2022/08/21 11:53:29;;;;;;;0.40;0.40;;;24.70;99.90;;;;;;5095254;28;20204;-65
2022/08/21 11:56:23;;;;;;;0.40;0.40;;;24.60;99.90;;;;;;5094087;28;20769;-66
2022/08/21 11:59:14;;;;;;;0.40;0.40;;;24.70;99.80;;;;;;5074074;28;20200;-66
2022/08/21 12:02:03;;;;;;;0.40;0.40;;;24.80;99.60;;;;;;5075227;28;20216;-66
2022/08/21 12:04:56;;;;;;;0.93;0.93;;;24.90;99.30;;;;;;5074075;28;20204;-64
2022/08/21 12:07:47;;;;;;;1.58;1.48;;;24.90;98.30;;;;;;5073713;28;20592;-66
2022/08/21 12:10:39;;;;;;;1.80;1.25;;;24.90;98.00;;;;;;5073043;28;20583;-64
2022/08/21 12:13:31;;;;;;;0.50;0.50;;;24.70;97.90;;;;;;5074110;28;20189;-64
2022/08/21 12:16:32;;;;;;;0.40;0.40;;;24.40;98.40;;;;;;5073871;28;20228;-66
2022/08/21 12:19:31;;;;;;;0.40;0.40;;;24.50;98.70;;;;;;5073098;28;20200;-64
2022/08/21 12:22:19;;;;;;;0.75;0.75;;;24.40;98.50;;;;;;5074072;28;20220;-66
2022/08/21 12:25:16;;;;;;;0.95;0.75;;;24.60;97.80;;;;;;5074151;28;20207;-66
2022/08/21 12:28:11;;;;;;;0.40;0.40;;;24.60;97.80;;;;;;5073531;28;20223;-64
2022/08/21 12:30:59;;;;;;;0.40;0.40;;;24.70;98.10;;;;;;5072635;28;20205;-65
2022/08/21 12:33:54;;;;;;;0.40;0.40;;;24.90;97.50;;;;;;5074197;28;20208;-66
2022/08/21 12:36:46;;;;;;;0.50;0.50;;;25.10;97.80;;;;;;5073167;28;20224;-65
2022/08/21 12:39:39;;;;;;;0.40;0.40;;;25.30;96.90;;;;;;5072907;28;20197;-66
2022/08/21 12:42:38;;;;;;;0.40;0.40;;;25.80;97.20;;;;;;5072688;28;20223;-65
2022/08/21 12:45:31;;;;;;;4.13;0.65;;;26.10;96.30;;;;;;5072320;28;20613;-64
2022/08/21 12:48:23;;;;;;;0.63;0.50;;;25.60;95.40;;;;;;5073012;28;20640;-66
2022/08/21 12:51:14;;;;;;;0.80;0.80;;;26.30;94.80;;;;;;5071770;28;20203;-65
2022/08/21 12:54:03;;;;;;;0.60;0.60;;;26.30;93.90;;;;;;5073377;28;20543;-65
2022/08/21 12:56:58;;;;;;;16.38;2.78;;;26.30;93.40;;;;;;5077995;28;20223;-67
2022/08/21 12:59:53;;;;;;;0.57;0.57;;;26.70;93.00;;;;;;5092005;28;20624;-63
2022/08/21 13:02:45;;;;;;;0.40;0.40;;;27.20;92.00;;;;;;5092379;28;20215;-64
2022/08/21 13:05:35;;;;;;;0.75;0.75;;;27.70;91.70;;;;;;5091484;28;20212;-65
2022/08/21 13:08:26;;;;;;;0.50;0.50;;;28.20;91.20;;;;;;5091319;28;20199;-63
2022/08/21 13:11:18;;;;;;;0.40;0.40;;;29.60;89.40;;;;;;5091793;28;20200;-64
2022/08/21 13:14:28;;;;;;;0.40;0.40;;;30.70;86.00;;;;;;5091338;28;20203;-64
2022/08/21 13:17:21;;;;;;;0.40;0.40;;;31.80;80.90;;;;;;5091491;28;20235;-65
2022/08/21 13:20:22;;;;;;;1.25;1.25;;;33.00;77.00;;;;;;5092429;28;20614;-65
2022/08/21 13:23:21;;;;;;;1.30;0.73;;;32.40;75.30;;;;;;5092059;28;20223;-64
2022/08/21 13:26:14;;;;;;;0.40;0.40;;;30.20;76.20;;;;;;5091825;28;20239;-64
2022/08/21 13:29:10;;;;;;;0.40;0.40;;;29.90;77.30;;;;;;5092070;28;20208;-64
2022/08/21 13:32:06;;;;;;;0.40;0.40;;;28.70;79.90;;;;;;5092388;28;20208;-64
2022/08/21 13:34:57;;;;;;;0.40;0.40;;;27.90;83.10;;;;;;5091026;28;20204;-64
2022/08/21 13:37:47;;;;;;;5.65;0.68;;;27.20;84.90;;;;;;5090841;28;20571;-64
2022/08/21 13:40:43;;;;;;;0.88;0.52;;;26.50;86.30;;;;;;5091420;28;20206;-64
2022/08/21 13:43:34;;;;;;;0.40;0.40;;;26.00;88.10;;;;;;5090642;28;20242;-64
2022/08/21 13:46:25;;;;;;;0.50;0.50;;;25.60;89.90;;;;;;5092564;28;20761;-66
2022/08/21 13:49:16;;;;;;;0.50;0.50;;;25.40;90.30;;;;;;5091295;28;20196;-66
2022/08/21 13:52:15;;;;;;;0.40;0.40;;;25.20;90.80;;;;;;5090980;28;20676;-65
2022/08/21 13:55:13;;;;;;;0.40;0.40;;;25.30;91.00;;;;;;5092628;28;20200;-66
2022/08/21 13:58:02;;;;;;;0.40;0.40;;;25.30;91.30;;;;;;5075938;28;20221;-66
2022/08/21 14:00:52;;;;;;;0.40;0.40;;;25.50;91.00;;;;;;5071397;28;20197;-66
2022/08/21 14:03:46;;;;;;;0.40;0.40;;;25.70;90.90;;;;;;5071552;28;20224;-66
2022/08/21 14:06:39;;;;;;;0.43;0.43;;;25.90;91.00;;;;;;5070213;28;20220;-65
2022/08/21 14:09:32;;;;;;;0.50;0.50;;;26.00;90.80;;;;;;5070927;28;20197;-65
2022/08/21 14:12:28;;;;;;;0.45;0.45;;;25.80;90.60;;;;;;5070596;28;20200;-64
2022/08/21 14:15:22;;;;;;;0.40;0.40;;;25.70;91.10;;;;;;5071538;28;20204;-65
2022/08/21 14:18:16;;;;;;;0.40;0.40;;;25.50;91.20;;;;;;5071328;28;20232;-66
2022/08/21 14:21:06;;;;;;;0.40;0.40;;;25.50;91.30;;;;;;5070490;28;20678;-66
2022/08/21 14:24:03;;;;;;;0.40;0.40;;;25.40;91.70;;;;;;5070833;28;20252;-66
2022/08/21 14:26:55;;;;;;;0.40;0.40;;;25.60;92.00;;;;;;5071113;28;20220;-66
2022/08/21 14:29:44;;;;;;;0.50;0.50;;;25.70;91.60;;;;;;5070530;28;20209;-65
2022/08/21 14:32:40;;;;;;;0.40;0.40;;;25.70;91.50;;;;;;5070884;28;20216;-66
2022/08/21 14:35:32;;;;;;;0.40;0.40;;;25.60;91.60;;;;;;5069769;28;20211;-66
2022/08/21 14:38:24;;;;;;;0.40;0.40;;;25.70;92.20;;;;;;5071276;28;20758;-66
2022/08/21 14:41:17;;;;;;;0.40;0.40;;;25.90;92.50;;;;;;5070760;28;20577;-66
2022/08/21 14:44:08;;;;;;;0.50;0.50;;;26.00;91.90;;;;;;5070714;28;20217;-66
2022/08/21 14:46:57;;;;;;;1.65;1.55;;;26.00;91.70;;;;;;5070529;28;20220;-66
2022/08/21 14:49:45;;;;;;;0.40;0.40;;;25.80;91.70;;;;;;5070816;28;20582;-66
2022/08/21 14:52:33;;;;;;;0.40;0.40;;;25.80;92.10;;;;;;5070550;28;20197;-66
2022/08/21 14:55:21;;;;;;;0.40;0.40;;;26.00;91.90;;;;;;5070278;28;20200;-66
2022/08/21 14:58:10;;;;;;;0.40;0.40;;;26.00;91.60;;;;;;5087098;28;20684;-66